createdAt,value
2022-10-21T00:01:00.584Z,5.33
2022-10-21T00:03:29.014Z,6.00
2022-10-21T00:05:58.387Z,5.17
2022-10-21T00:08:26.630Z,5.57
2022-10-21T00:10:55.683Z,5.20
2022-10-21T00:13:24.515Z,4.57
2022-10-21T00:16:02.975Z,5.57
2022-10-21T00:18:31.775Z,5.23
2022-10-21T00:21:01.542Z,5.80
2022-10-21T00:23:29.573Z,4.63
2022-10-21T00:25:58.322Z,5.73
2022-10-21T00:28:26.957Z,5.67
2022-10-21T00:30:56.318Z,4.70
2022-10-21T00:33:27.314Z,5.03
2022-10-21T00:35:57.230Z,5.80
2022-10-21T00:38:27.134Z,5.53
2022-10-21T00:40:55.467Z,5.53
2022-10-21T00:43:23.769Z,5.47
2022-10-21T00:45:53.858Z,4.57
2022-10-21T00:48:26.449Z,5.30
2022-10-21T00:50:56.549Z,4.70
2022-10-21T00:53:27.145Z,5.60
2022-10-21T00:56:00.596Z,5.90
2022-10-21T00:58:31.597Z,5.37
2022-10-21T01:01:00.989Z,5.43
2022-10-21T01:03:30.633Z,6.20
2022-10-21T01:06:00.442Z,5.60
2022-10-21T01:08:30.208Z,5.30
2022-10-21T01:10:59.268Z,5.40
2022-10-21T01:13:35.256Z,5.77
2022-10-21T01:16:10.314Z,6.07
2022-10-21T01:18:45.536Z,5.50
2022-10-21T01:21:31.348Z,5.23
2022-10-21T01:24:29.008Z,5.63
2022-10-21T01:27:04.935Z,5.50
2022-10-21T01:29:53.911Z,5.60
2022-10-21T01:32:29.832Z,5.50
2022-10-21T01:35:02.981Z,5.43
2022-10-21T01:37:40.004Z,5.97
2022-10-21T01:40:11.805Z,5.40
2022-10-21T01:42:43.784Z,5.63
2022-10-21T01:45:15.594Z,5.47
2022-10-21T01:47:48.483Z,5.90
2022-10-21T01:50:18.572Z,5.57
2022-10-21T01:52:49.803Z,5.77
2022-10-21T01:55:21.684Z,5.57
2022-10-21T01:57:54.035Z,6.13
2022-10-21T02:00:23.163Z,5.83
2022-10-21T02:02:52.825Z,5.70
2022-10-21T02:05:25.388Z,5.10
2022-10-21T02:07:53.430Z,5.60
2022-10-21T02:10:21.964Z,6.17
2022-10-21T02:12:51.867Z,5.57
2022-10-21T02:15:21.273Z,5.10
2022-10-21T02:17:56.929Z,6.33
2022-10-21T02:20:26.215Z,5.73
2022-10-21T02:22:54.525Z,6.10
2022-10-21T02:25:25.159Z,5.90
2022-10-21T02:27:53.702Z,5.70
2022-10-21T02:30:22.089Z,6.20
2022-10-21T02:32:55.326Z,5.87
2022-10-21T02:35:30.894Z,5.90
2022-10-21T02:38:02.810Z,5.30
2022-10-21T02:40:35.243Z,5.57
2022-10-21T02:43:06.743Z,5.83
2022-10-21T02:45:35.542Z,5.60
2022-10-21T02:48:05.279Z,5.40
2022-10-21T02:50:33.593Z,6.40
2022-10-21T02:53:01.643Z,5.93
2022-10-21T02:55:29.665Z,6.17
2022-10-21T02:57:57.675Z,6.00
2022-10-21T03:00:29.549Z,6.20
2022-10-21T03:03:00.667Z,6.20
2022-10-21T03:08:03.173Z,6.30
2022-10-21T03:10:31.248Z,5.83
2022-10-21T03:12:59.233Z,5.73
2022-10-21T03:15:27.316Z,6.20
2022-10-21T03:17:55.382Z,6.20
2022-10-21T03:20:23.633Z,6.20
2022-10-21T03:22:53.038Z,6.00
2022-10-21T03:25:21.143Z,6.50
2022-10-21T03:27:50.913Z,5.80
2022-10-21T03:30:19.061Z,5.50
2022-10-21T03:32:47.109Z,5.77
2022-10-21T03:35:15.295Z,6.23
2022-10-21T03:37:43.342Z,5.50
2022-10-21T03:40:13.393Z,5.40
2022-10-21T03:42:41.845Z,7.30
2022-10-21T03:45:10.889Z,6.07
2022-10-21T03:47:38.970Z,6.33
2022-10-21T03:50:11.890Z,6.40
2022-10-21T03:52:42.086Z,6.30
2022-10-21T03:55:10.585Z,6.83
2022-10-21T03:57:40.130Z,6.37
2022-10-21T04:00:09.653Z,5.70
2022-10-21T04:02:40.871Z,5.77
2022-10-21T04:05:10.215Z,6.00
2022-10-21T04:07:38.423Z,6.37
2022-10-21T04:10:07.234Z,5.77
2022-10-21T04:12:35.653Z,5.50
2022-10-21T04:15:05.780Z,5.63
2022-10-21T04:17:33.854Z,5.87
2022-10-21T04:20:01.862Z,5.40
2022-10-21T04:22:29.912Z,6.17
2022-10-21T04:24:59.772Z,8.57
2022-10-21T04:27:30.286Z,5.60
2022-10-21T04:29:58.319Z,5.20
2022-10-21T04:32:27.753Z,5.97
2022-10-21T04:34:55.790Z,5.30
2022-10-21T04:37:23.792Z,5.70
2022-10-21T04:39:51.827Z,5.70
2022-10-21T04:42:19.842Z,6.10
2022-10-21T04:44:47.893Z,6.10
2022-10-21T04:47:16.077Z,6.37
2022-10-21T04:49:45.433Z,6.40
2022-10-21T04:52:13.736Z,6.07
2022-10-21T04:54:41.699Z,5.10
2022-10-21T04:57:09.753Z,6.07
2022-10-21T04:59:37.767Z,5.50
2022-10-21T05:02:05.909Z,6.10
2022-10-21T05:04:33.957Z,5.50
2022-10-21T05:07:03.526Z,5.57
2022-10-21T05:09:31.543Z,5.60
2022-10-21T05:11:59.663Z,5.70
2022-10-21T05:14:27.704Z,5.80
2022-10-21T05:16:55.788Z,5.87
2022-10-21T05:19:26.518Z,6.00
2022-10-21T05:21:55.770Z,6.30
2022-10-21T05:24:25.200Z,5.77
2022-10-21T05:26:53.235Z,5.57
2022-10-21T05:29:21.297Z,5.30
2022-10-21T05:31:49.357Z,5.63
2022-10-21T05:34:17.425Z,5.63
2022-10-21T05:36:45.421Z,5.77
2022-10-21T05:39:13.430Z,5.63
2022-10-21T05:41:45.497Z,5.50
2022-10-21T05:44:15.972Z,5.50
2022-10-21T05:46:44.018Z,5.93
2022-10-21T05:49:13.132Z,5.07
2022-10-21T05:51:41.156Z,5.03
2022-10-21T05:54:09.164Z,5.40
2022-10-21T05:56:37.333Z,5.83
2022-10-21T05:59:09.378Z,5.83
2022-10-21T06:01:39.667Z,5.30
2022-10-21T06:04:08.092Z,5.50
2022-10-21T06:06:36.136Z,5.80
2022-10-21T06:09:05.046Z,5.13
2022-10-21T06:11:33.280Z,5.53
2022-10-21T06:14:01.345Z,6.80
2022-10-21T06:16:30.837Z,5.53
2022-10-21T06:18:58.918Z,5.37
2022-10-21T06:21:27.023Z,6.40
2022-10-21T06:23:55.366Z,4.90
2022-10-21T06:26:23.433Z,5.50
2022-10-21T06:28:51.461Z,5.60
2022-10-21T06:31:21.552Z,4.87
2022-10-21T06:33:51.068Z,4.70
2022-10-21T06:36:19.177Z,5.20
2022-10-21T06:38:47.232Z,6.53
2022-10-21T06:41:15.777Z,5.13
2022-10-21T06:43:43.977Z,5.47
2022-10-21T06:46:14.297Z,5.20
2022-10-21T06:48:42.691Z,5.30
2022-10-21T06:51:15.445Z,5.70
2022-10-21T06:53:43.589Z,6.40
2022-10-21T06:56:13.936Z,5.90
2022-10-21T06:58:43.430Z,5.50
2022-10-21T07:01:27.185Z,5.17
2022-10-21T07:04:01.082Z,5.80
2022-10-21T07:06:30.788Z,6.27
2022-10-21T07:08:59.329Z,6.30
2022-10-21T07:11:27.899Z,5.83
2022-10-21T07:13:56.147Z,6.80
2022-10-21T07:16:29.833Z,6.40
2022-10-21T07:18:59.469Z,5.90
2022-10-21T07:21:33.423Z,5.70
2022-10-21T07:24:01.968Z,7.30
2022-10-21T07:26:31.432Z,5.80
2022-10-21T07:29:00.715Z,5.97
2022-10-21T07:31:30.092Z,5.30
2022-10-21T07:33:58.172Z,5.23
2022-10-21T07:36:28.327Z,5.03
2022-10-21T07:39:00.231Z,5.17
2022-10-21T07:41:30.165Z,5.67
2022-10-21T07:43:58.945Z,5.70
2022-10-21T07:46:27.235Z,5.80
2022-10-21T07:48:55.866Z,6.30
2022-10-21T07:51:28.485Z,5.43
2022-10-21T07:53:59.286Z,5.43
2022-10-21T07:56:30.139Z,5.37
2022-10-21T07:58:58.216Z,5.53
2022-10-21T08:01:26.799Z,5.53
2022-10-21T08:03:55.739Z,5.57
2022-10-21T08:06:24.242Z,5.70
2022-10-21T08:08:52.524Z,6.20
2022-10-21T08:11:26.639Z,5.30
2022-10-21T08:13:55.992Z,5.37
2022-10-21T08:16:24.267Z,5.77
2022-10-21T08:18:52.445Z,5.43
2022-10-21T08:21:20.610Z,5.20
2022-10-21T08:23:48.907Z,6.77
2022-10-21T08:26:17.531Z,4.40
2022-10-21T08:28:47.408Z,5.80
2022-10-21T08:31:19.172Z,5.43
2022-10-21T08:33:50.552Z,5.37
2022-10-21T08:36:21.067Z,6.23
2022-10-21T08:38:49.660Z,5.93
2022-10-21T08:41:36.455Z,4.80
2022-10-21T08:44:08.377Z,4.70
2022-10-21T08:46:39.181Z,4.83
2022-10-21T08:49:10.845Z,5.83
2022-10-21T08:51:41.599Z,5.07
2022-10-21T08:54:14.644Z,4.37
2022-10-21T08:56:42.874Z,5.30
2022-10-21T08:59:19.552Z,5.43
2022-10-21T09:01:55.170Z,5.37
2022-10-21T09:04:28.802Z,4.60
2022-10-21T09:07:01.089Z,5.50
2022-10-21T09:09:31.959Z,6.47
2022-10-21T09:12:08.243Z,5.70
2022-10-21T09:14:57.416Z,5.63
2022-10-21T09:17:39.809Z,5.50
2022-10-21T09:20:16.255Z,5.70
2022-10-21T09:22:52.715Z,5.53
2022-10-21T09:25:22.966Z,5.63
2022-10-21T09:27:56.330Z,4.97
2022-10-21T09:30:26.806Z,4.80
2022-10-21T09:32:58.751Z,5.70
2022-10-21T09:35:33.756Z,5.37
2022-10-21T09:38:05.087Z,6.00
2022-10-21T09:40:34.007Z,5.97
2022-10-21T09:43:02.398Z,5.63
2022-10-21T09:45:34.708Z,5.03
2022-10-21T09:48:06.203Z,5.27
2022-10-21T09:50:35.729Z,4.93
2022-10-21T09:53:10.813Z,4.70
2022-10-21T09:55:40.011Z,5.47
2022-10-21T09:58:08.265Z,4.03
2022-10-21T10:00:46.491Z,4.57
2022-10-21T10:03:30.761Z,5.27
2022-10-21T10:05:58.891Z,4.90
2022-10-21T10:08:35.363Z,4.60
2022-10-21T10:11:20.391Z,5.17
2022-10-21T10:13:50.340Z,4.40
2022-10-21T10:16:26.270Z,4.37
2022-10-21T10:18:55.733Z,4.73
2022-10-21T10:21:24.039Z,4.47
2022-10-21T10:23:54.141Z,4.83
2022-10-21T10:26:27.302Z,4.50
2022-10-21T10:28:57.312Z,4.80
2022-10-21T10:31:29.977Z,4.60
2022-10-21T10:34:00.826Z,5.33
2022-10-21T10:36:32.062Z,4.63
2022-10-21T10:39:01.203Z,4.80
2022-10-21T10:41:36.431Z,4.73
2022-10-21T10:44:10.766Z,6.60
2022-10-21T10:46:40.862Z,6.40
2022-10-21T10:49:22.667Z,5.23
2022-10-21T10:52:07.484Z,4.97
2022-10-21T10:54:36.320Z,5.10
2022-10-21T10:57:06.856Z,4.40
2022-10-21T10:59:38.926Z,4.90
2022-10-21T11:02:20.611Z,4.43
2022-10-21T11:05:05.156Z,5.10
2022-10-21T11:07:35.782Z,5.00
2022-10-21T11:10:06.454Z,5.10
2022-10-21T11:12:34.654Z,5.67
2022-10-21T11:15:03.004Z,4.80
2022-10-21T11:17:39.130Z,5.10
2022-10-21T11:20:12.911Z,4.90
2022-10-21T11:22:45.285Z,4.60
2022-10-21T11:25:20.974Z,6.10
2022-10-21T11:27:59.304Z,5.60
2022-10-21T11:30:34.084Z,6.53
2022-10-21T11:33:11.853Z,7.57
2022-10-21T11:35:52.097Z,6.50
2022-10-21T11:38:49.369Z,5.73
2022-10-21T11:41:31.657Z,4.70
2022-10-21T11:44:13.292Z,5.33
2022-10-21T11:46:47.192Z,5.10
2022-10-21T11:49:30.629Z,5.10
2022-10-21T11:52:09.590Z,5.73
2022-10-21T11:55:09.366Z,5.70
2022-10-21T11:57:46.961Z,6.10
2022-10-21T12:00:17.569Z,5.27
2022-10-21T12:02:50.412Z,5.37
2022-10-21T12:05:28.260Z,5.77
2022-10-21T12:08:10.173Z,5.00
2022-10-21T12:10:44.837Z,4.77
2022-10-21T12:13:18.268Z,4.80
2022-10-21T12:15:49.617Z,6.03
2022-10-21T12:18:19.855Z,5.00
2022-10-21T12:20:55.369Z,5.90
2022-10-21T12:23:27.007Z,5.60
2022-10-21T12:26:04.403Z,5.13
2022-10-21T12:28:37.128Z,5.23
2022-10-21T12:31:15.265Z,4.67
2022-10-21T12:33:45.339Z,4.83
2022-10-21T12:36:19.461Z,5.47
2022-10-21T12:38:49.800Z,5.10
2022-10-21T12:41:34.451Z,5.50
2022-10-21T12:44:13.315Z,5.80
2022-10-21T12:46:43.821Z,5.57
2022-10-21T12:49:23.920Z,5.63
2022-10-21T12:51:56.640Z,5.00
2022-10-21T12:54:30.340Z,6.60
2022-10-21T12:57:04.019Z,5.70
2022-10-21T12:59:37.046Z,5.93
2022-10-21T13:02:24.492Z,6.67
2022-10-21T13:04:57.791Z,6.03
2022-10-21T13:07:40.453Z,5.70
2022-10-21T13:10:28.174Z,5.17
2022-10-21T13:13:31.983Z,5.40
2022-10-21T13:16:04.303Z,5.13
2022-10-21T13:18:58.263Z,5.03
2022-10-21T13:21:37.795Z,5.73
2022-10-21T13:24:26.460Z,5.30
2022-10-21T13:26:57.699Z,5.10
2022-10-21T13:29:45.009Z,5.73
2022-10-21T13:32:34.950Z,4.50
2022-10-21T13:35:26.628Z,4.90
2022-10-21T13:37:59.883Z,5.57
2022-10-21T13:40:36.097Z,5.23
2022-10-21T13:43:08.708Z,5.27
2022-10-21T13:45:43.468Z,4.50
2022-10-21T13:48:14.724Z,4.57
2022-10-21T13:50:49.181Z,5.00
2022-10-21T13:53:29.979Z,5.20
2022-10-21T13:56:03.152Z,4.80
2022-10-21T13:58:36.109Z,5.23
2022-10-21T14:01:16.896Z,5.40
2022-10-21T14:03:45.787Z,5.67
2022-10-21T14:06:32.321Z,5.60
2022-10-21T14:09:01.963Z,5.40
2022-10-21T14:11:37.493Z,4.90
2022-10-21T14:14:10.131Z,5.63
2022-10-21T14:16:41.759Z,5.60
2022-10-21T14:19:12.572Z,5.90
2022-10-21T14:21:45.153Z,5.50
2022-10-21T14:24:27.654Z,5.43
2022-10-21T14:26:57.714Z,4.90
2022-10-21T14:29:33.141Z,5.17
2022-10-21T14:32:01.948Z,5.47
2022-10-21T14:34:31.728Z,5.40
2022-10-21T14:37:01.977Z,5.00
2022-10-21T14:39:30.685Z,4.70
2022-10-21T14:42:06.288Z,4.60
2022-10-21T14:44:34.472Z,4.73
2022-10-21T14:47:03.388Z,4.80
2022-10-21T14:49:33.888Z,4.23
2022-10-21T14:52:06.061Z,4.90
2022-10-21T14:54:42.828Z,4.90
2022-10-21T14:57:27.153Z,4.10
2022-10-21T14:59:55.425Z,5.00
2022-10-21T15:02:27.142Z,5.00
2022-10-21T15:04:57.004Z,4.47
2022-10-21T15:07:30.495Z,4.37
2022-10-21T15:10:15.163Z,4.70
2022-10-21T15:12:45.597Z,4.23
2022-10-21T15:15:48.365Z,4.50
2022-10-21T15:18:23.601Z,4.80
2022-10-21T15:20:54.120Z,4.90
2022-10-21T15:23:25.555Z,4.50
2022-10-21T15:25:56.135Z,4.77
2022-10-21T15:28:28.328Z,4.67
2022-10-21T15:30:59.566Z,5.20
2022-10-21T15:33:28.556Z,4.70
2022-10-21T15:36:04.670Z,5.43
2022-10-21T15:38:33.903Z,4.43
2022-10-21T15:41:02.147Z,5.17
2022-10-21T15:43:31.891Z,5.37
2022-10-21T15:46:00.171Z,5.57
2022-10-21T15:48:29.224Z,6.10
2022-10-21T15:50:58.069Z,6.13
2022-10-21T15:53:26.094Z,6.20
2022-10-21T15:55:54.493Z,5.53
2022-10-21T15:58:22.897Z,5.30
2022-10-21T16:00:53.425Z,5.80
2022-10-21T16:03:22.625Z,5.43
2022-10-21T16:05:51.561Z,5.63
2022-10-21T16:08:19.950Z,5.57
2022-10-21T16:10:50.273Z,5.77
2022-10-21T16:13:20.206Z,5.30
2022-10-21T16:15:48.870Z,4.53
2022-10-21T16:18:18.884Z,5.43
2022-10-21T16:20:47.438Z,4.90
2022-10-21T16:23:15.927Z,5.90
2022-10-21T16:25:45.042Z,5.63
2022-10-21T16:28:13.683Z,5.03
2022-10-21T16:30:42.517Z,5.93
2022-10-21T16:33:11.297Z,5.10
2022-10-21T16:35:41.113Z,5.17
2022-10-21T16:38:10.583Z,6.23
2022-10-21T16:40:39.272Z,5.00
2022-10-21T16:43:08.686Z,5.50
2022-10-21T16:45:37.113Z,5.80
2022-10-21T16:48:06.140Z,5.37
2022-10-21T16:50:39.892Z,5.60
2022-10-21T16:53:15.060Z,5.40
2022-10-21T16:55:43.951Z,5.30
2022-10-21T16:58:12.054Z,5.60
2022-10-21T17:00:41.657Z,5.87
2022-10-21T17:03:12.480Z,5.60
2022-10-21T17:05:41.154Z,5.47
2022-10-21T17:08:11.582Z,4.70
2022-10-21T17:10:40.078Z,5.27
2022-10-21T17:13:08.459Z,5.27
2022-10-21T17:15:38.195Z,5.30
2022-10-21T17:18:13.189Z,5.97
2022-10-21T17:20:44.923Z,5.70
2022-10-21T17:23:15.465Z,5.27
2022-10-21T17:25:43.923Z,4.67
2022-10-21T17:28:12.857Z,4.87
2022-10-21T17:30:41.883Z,5.30
2022-10-21T17:33:15.346Z,5.77
2022-10-21T17:35:45.113Z,6.00
2022-10-21T17:38:15.192Z,7.27
2022-10-21T17:40:44.013Z,6.73
2022-10-21T17:43:15.085Z,7.17
2022-10-21T17:45:43.950Z,6.10
2022-10-21T17:48:13.167Z,7.00
2022-10-21T17:50:42.923Z,6.10
2022-10-21T17:53:13.829Z,7.00
2022-10-21T17:55:46.422Z,6.40
2022-10-21T17:58:16.328Z,6.30
2022-10-21T18:00:48.726Z,7.23
2022-10-21T18:03:20.114Z,6.73
2022-10-21T18:05:50.320Z,6.23
2022-10-21T18:08:20.207Z,7.20
2022-10-21T18:10:59.001Z,7.20
2022-10-21T18:13:30.807Z,7.73
2022-10-21T18:16:08.324Z,7.70
2022-10-21T18:18:39.550Z,7.20
2022-10-21T18:21:10.600Z,7.03
2022-10-21T18:23:42.553Z,6.70
2022-10-21T18:26:15.498Z,6.67
2022-10-21T18:28:45.673Z,7.17
2022-10-21T18:31:15.002Z,6.57
2022-10-21T18:33:44.368Z,6.60
2022-10-21T18:36:14.969Z,7.00
2022-10-21T18:38:43.285Z,6.33
2022-10-21T18:41:20.057Z,6.10
2022-10-21T18:43:51.851Z,6.10
2022-10-21T18:46:23.143Z,6.50
2022-10-21T18:48:53.218Z,6.13
2022-10-21T18:51:24.396Z,5.87
2022-10-21T18:53:54.763Z,6.73
2022-10-21T18:56:27.248Z,6.77
2022-10-21T18:58:58.783Z,7.20
2022-10-21T19:01:28.403Z,7.23
2022-10-21T19:03:58.436Z,8.27
2022-10-21T19:06:40.330Z,7.40
2022-10-21T19:09:13.412Z,7.20
2022-10-21T19:11:45.717Z,7.30
2022-10-21T19:14:18.756Z,7.57
2022-10-21T19:16:50.719Z,6.60
2022-10-21T19:19:20.181Z,7.23
2022-10-21T19:21:49.659Z,7.43
2022-10-21T19:24:19.749Z,7.73
2022-10-21T19:26:53.649Z,7.37
2022-10-21T19:29:25.081Z,6.60
2022-10-21T19:31:56.787Z,7.47
2022-10-21T19:34:27.771Z,8.27
2022-10-21T19:36:57.801Z,7.30
2022-10-21T19:39:27.380Z,7.80
2022-10-21T19:42:00.106Z,7.33
2022-10-21T19:44:31.024Z,8.00
2022-10-21T19:47:03.171Z,8.13
2022-10-21T19:49:33.575Z,7.40
2022-10-21T19:52:03.608Z,7.97
2022-10-21T19:54:32.950Z,6.87
2022-10-21T19:57:03.749Z,7.10
2022-10-21T19:59:32.719Z,6.93
2022-10-21T20:02:01.692Z,7.43
2022-10-21T20:04:33.878Z,7.77
2022-10-21T20:07:07.495Z,6.87
2022-10-21T20:09:38.881Z,6.30
2022-10-21T20:12:11.504Z,7.00
2022-10-21T20:14:44.460Z,7.37
2022-10-21T20:17:16.095Z,6.77
2022-10-21T20:19:48.590Z,7.47
2022-10-21T20:22:17.455Z,6.60
2022-10-21T20:24:46.480Z,7.63
2022-10-21T20:27:17.287Z,7.30
2022-10-21T20:29:46.352Z,7.83
2022-10-21T20:32:15.559Z,7.67
2022-10-21T20:34:45.056Z,8.53
2022-10-21T20:37:13.707Z,7.37
2022-10-21T20:39:45.834Z,7.00
2022-10-21T20:42:14.280Z,6.87
2022-10-21T20:47:19.210Z,7.73
2022-10-21T20:49:47.794Z,6.50
2022-10-21T20:52:15.932Z,7.27
2022-10-21T20:54:44.019Z,7.60
2022-10-21T20:57:12.526Z,7.37
2022-10-21T20:59:40.585Z,6.87
2022-10-21T21:02:10.994Z,7.40
2022-10-21T21:04:39.166Z,7.33
2022-10-21T21:07:07.181Z,6.23
2022-10-21T21:10:01.034Z,7.03
2022-10-21T21:12:23.333Z,7.50
2022-10-21T21:14:51.387Z,6.93
2022-10-21T21:17:20.814Z,7.07
2022-10-21T21:19:48.930Z,7.90
2022-10-21T21:22:16.969Z,7.43
2022-10-21T21:24:45.098Z,7.70
2022-10-21T21:27:13.105Z,7.90
2022-10-21T21:29:41.170Z,7.20
2022-10-21T21:32:09.192Z,7.67
2022-10-21T21:34:38.594Z,7.43
2022-10-21T21:37:06.695Z,7.10
2022-10-21T21:39:34.709Z,7.13
2022-10-21T21:42:02.797Z,7.13
2022-10-21T21:44:30.824Z,8.10
2022-10-21T21:46:58.888Z,7.20
2022-10-21T21:49:27.062Z,6.80
2022-10-21T21:51:56.482Z,8.03
2022-10-21T21:54:24.536Z,7.90
2022-10-21T21:56:57.382Z,8.27
2022-10-21T21:59:40.664Z,8.07
2022-10-21T22:02:09.207Z,6.60
2022-10-21T22:04:39.364Z,7.17
2022-10-21T22:07:08.879Z,8.10
2022-10-21T22:09:36.918Z,7.60
2022-10-21T22:12:05.873Z,7.43
2022-10-21T22:14:34.071Z,7.80
2022-10-21T22:17:02.137Z,7.27
2022-10-21T22:19:30.176Z,7.50
2022-10-21T22:21:58.531Z,6.43
2022-10-21T22:24:27.955Z,7.60
2022-10-21T22:26:56.162Z,7.20
2022-10-21T22:29:24.197Z,7.00
2022-10-21T22:31:52.246Z,8.30
2022-10-21T22:34:20.293Z,7.90
2022-10-21T22:36:48.370Z,7.50
2022-10-21T22:39:16.434Z,6.73
2022-10-21T22:41:45.913Z,7.33
2022-10-21T22:44:14.241Z,8.10
2022-10-21T22:46:42.252Z,7.67
2022-10-21T22:49:11.021Z,7.27
2022-10-21T22:51:39.122Z,7.43
2022-10-21T22:54:14.989Z,7.50
2022-10-21T22:56:48.936Z,8.27
2022-10-21T22:59:16.988Z,7.70
2022-10-21T23:01:45.071Z,8.40
2022-10-21T23:04:13.129Z,8.00
2022-10-21T23:06:41.719Z,8.30
2022-10-21T23:09:09.919Z,8.47
2022-10-21T23:11:37.979Z,7.97
2022-10-21T23:14:09.478Z,7.90
2022-10-21T23:16:38.437Z,8.87
2022-10-21T23:19:06.740Z,9.03
2022-10-21T23:21:34.946Z,9.10
2022-10-21T23:24:03.061Z,8.53
2022-10-21T23:26:31.119Z,8.73
2022-10-21T23:28:59.336Z,8.60
2022-10-21T23:31:28.850Z,8.60
2022-10-21T23:33:57.002Z,8.13
2022-10-21T23:36:25.096Z,8.77
2022-10-21T23:38:58.367Z,9.13
2022-10-21T23:41:26.569Z,8.93
2022-10-21T23:43:54.821Z,8.90
2022-10-21T23:46:23.234Z,8.20
2022-10-21T23:48:52.778Z,8.60
2022-10-21T23:51:20.875Z,8.80
2022-10-21T23:53:49.225Z,9.47
2022-10-21T23:56:17.345Z,9.20
2022-10-21T23:58:45.453Z,8.93
